KALX/ALX METAR and TAF weather

Enter ICAO airport designator
Station Type Date Time Source
KALX METAR 2022/06/30 13:35 UTC NOAA

KALX 301335Z AUTO 00000KT 10SM BKN009 BKN014 23/23 A3023 RMK AO2 T02340228


Station Type Date Time Source
KALX Decoded METAR 2022/06/30 13:35 UTC NOAA

Alexander City, Thomas C Russell Field Airport, AL, United States (KALX) 32-54-53N 085-57-46W
Jun 30, 2022 - 09:35 AM EDT / 2022.06.30 1335 UTC
Wind: Calm:0
Visibility: 10 mile(s):0
Sky conditions: mostly cloudy
Temperature: 74.1 F (23.4 C)
Dew Point: 73.0 F (22.8 C)
Relative Humidity: 96%
Pressure (altimeter): 30.23 in. Hg (1023 hPa)
ob: KALX 301335Z AUTO 00000KT 10SM BKN009 BKN014 23/23 A3023 RMK AO2 T02340228
cycle: 13

Station Type Date Time Source
KALX TAF UTC NOAA

Error!

Example: see airport list